world map with ESCM marked

ESCM - Airport

This information may not be accurate or current and is not valid for navigation or flight planning. No warranty of fitness for any purpose is made or implied.

flag of Sweden

Donate via PayPal

Additional information is available on the NEW Great Circle Mapper

Location
City:  Uppsala, Uppsala län, Sweden
Name:Uppsale (Ärna - F 16)
ICAO:ESCM

Details
Type:Airport (Aerodrome, Airfield)
Use:Military
Latitude:59°53'50"N (59.897328)
Longitude:17°35'19"E (17.588581)
Datum:WGS 1984
Elevation:68 ft (21 m)
Runways:2
Longest:6594 × 131 ft (2010 × 40 m)

Time
Timezone:UTC+1 (DST+4)
Local Time:

Weather
METAR:ESCM  190220Z AUTO 00000KT 4800 BR OVC044/// M05/M05 Q1026

Related Locations
Nearby:
Farthest:CHT: 11173 mi / 17981 km
Waitangi [Tuuta], CIT, NZ

Find:

   beyond  
but within

Other Information
Maps:
Links:
Sources:

  


 


Great Circle Mapper   Great Circle Mapper
Great Circle Mapper FAQ   Great Circle Mapper FAQ
  Karl's Home Page
KLS²   KLS² Home
   GC on Facebook
Airlines of the World   Airlines of the World
Donate via PayPal


Copyright © 2004-2018, Karl L. Swartz. All rights reserved.
All trademarks mentioned herein belong to their respective owners.

Please see credits for attribution and copyright information.

Karl Swartz <karl@kls2.com>
  Powered by FreeBSD
Valid HTML 4.01!
Labeled with ICRA
hCard Microformat
Geo Microformat